Time;durP1;ratioP1;P1;durP2;ratioP2;P2;SDS_P1;SDS_P2;PMS_P1;PMS_P2;Temp;Humidity;BMP_temperature;BMP_pressure;BME280_temperature;BME280_humidity;BME280_pressure;Samples;Min_cycle;Max_cycle;Signal;HPM_P1;HPM_P2
2023/05/12 00:01:06;;;;;;;5.60;4.30;;;;;;;;;;5090208;28;20045;-70
2023/05/12 00:03:33;;;;;;;5.88;4.57;;;;;;;;;;5092844;28;20048;-70
2023/05/12 00:06:02;;;;;;;7.07;4.82;;;;;;;;;;5094193;28;20055;-71
2023/05/12 00:08:28;;;;;;;5.28;3.90;;;;;;;;;;5093674;28;20464;-70
2023/05/12 00:10:57;;;;;;;5.70;4.32;;;;;;;;;;5093616;28;20445;-69
2023/05/12 00:13:23;;;;;;;14.80;5.28;;;;;;;;;;5092984;28;20048;-69
2023/05/12 00:15:50;;;;;;;7.35;4.43;;;;;;;;;;5093183;28;20040;-69
2023/05/12 00:18:17;;;;;;;7.25;4.95;;;;;;;;;;5093017;28;20077;-68
2023/05/12 00:20:43;;;;;;;7.68;4.97;;;;;;;;;;5092817;28;20387;-69
2023/05/12 00:23:10;;;;;;;7.50;5.18;;;;;;;;;;5093120;28;20051;-69
2023/05/12 00:25:36;;;;;;;5.38;4.88;;;;;;;;;;5092862;28;20135;-69
2023/05/12 00:28:05;;;;;;;8.20;5.15;;;;;;;;;;5093565;28;20466;-69
2023/05/12 00:30:31;;;;;;;6.78;5.18;;;;;;;;;;5092793;28;20075;-69
2023/05/12 00:32:58;;;;;;;7.82;5.10;;;;;;;;;;5092783;28;20046;-68
2023/05/12 00:35:25;;;;;;;6.93;5.32;;;;;;;;;;5092904;28;20044;-69
2023/05/12 00:37:51;;;;;;;7.20;5.45;;;;;;;;;;5093164;28;20401;-69
2023/05/12 00:40:18;;;;;;;7.93;5.63;;;;;;;;;;5092713;28;20040;-69
2023/05/12 00:42:44;;;;;;;8.68;5.53;;;;;;;;;;5092934;28;20413;-68
2023/05/12 00:45:12;;;;;;;8.93;5.50;;;;;;;;;;5092364;28;20048;-69
2023/05/12 00:47:39;;;;;;;7.15;5.40;;;;;;;;;;5092540;28;20414;-68
2023/05/12 00:50:07;;;;;;;7.20;5.28;;;;;;;;;;5092424;28;20044;-69
2023/05/12 00:52:35;;;;;;;7.05;5.28;;;;;;;;;;5092682;28;20297;-69
2023/05/12 00:55:03;;;;;;;7.28;5.30;;;;;;;;;;5092834;28;20047;-69
2023/05/12 00:57:31;;;;;;;8.70;5.55;;;;;;;;;;5092233;28;20044;-69
2023/05/12 00:59:57;;;;;;;7.18;5.35;;;;;;;;;;5092104;28;20048;-69
2023/05/12 01:02:25;;;;;;;7.93;5.78;;;;;;;;;;5092252;28;20051;-69
2023/05/12 01:04:52;;;;;;;6.80;5.22;;;;;;;;;;5092630;28;20052;-69
2023/05/12 01:07:21;;;;;;;7.03;5.03;;;;;;;;;;5092017;28;20051;-69
2023/05/12 01:09:47;;;;;;;6.75;5.30;;;;;;;;;;5093120;28;20048;-70
2023/05/12 01:12:14;;;;;;;7.22;5.18;;;;;;;;;;5092136;28;20048;-70
2023/05/12 01:14:41;;;;;;;8.15;5.90;;;;;;;;;;5091972;28;20074;-70
2023/05/12 01:17:11;;;;;;;7.78;6.15;;;;;;;;;;5091817;28;20044;-71
2023/05/12 01:19:42;;;;;;;6.97;5.10;;;;;;;;;;5090887;28;20548;-68
2023/05/12 01:22:09;;;;;;;6.95;4.88;;;;;;;;;;5091493;28;20048;-69
2023/05/12 01:24:42;;;;;;;6.90;5.07;;;;;;;;;;5092598;28;20055;-71
2023/05/12 01:27:10;;;;;;;7.43;5.18;;;;;;;;;;5091225;28;20406;-70
2023/05/12 01:29:38;;;;;;;8.05;5.25;;;;;;;;;;5091536;28;20048;-71
2023/05/12 01:32:04;;;;;;;7.18;5.32;;;;;;;;;;5092389;28;20114;-71
2023/05/12 01:34:33;;;;;;;8.32;5.50;;;;;;;;;;5091506;28;20097;-71
2023/05/12 01:37:00;;;;;;;9.38;6.03;;;;;;;;;;5091753;28;20410;-71
2023/05/12 01:39:26;;;;;;;7.07;5.55;;;;;;;;;;5091321;28;20040;-71
2023/05/12 01:41:53;;;;;;;8.02;5.55;;;;;;;;;;5091436;28;20135;-70
2023/05/12 01:44:21;;;;;;;8.43;6.20;;;;;;;;;;5091691;28;20490;-71
2023/05/12 01:46:48;;;;;;;6.93;5.63;;;;;;;;;;5092008;28;20039;-70
2023/05/12 01:49:14;;;;;;;7.93;5.45;;;;;;;;;;5091750;28;20687;-70
2023/05/12 01:51:41;;;;;;;7.55;5.93;;;;;;;;;;5088864;28;20417;-70
2023/05/12 01:54:08;;;;;;;6.82;5.50;;;;;;;;;;5090399;28;20460;-70
2023/05/12 01:56:35;;;;;;;10.77;5.97;;;;;;;;;;5091281;28;20570;-69
2023/05/12 01:59:01;;;;;;;9.88;6.00;;;;;;;;;;5089475;28;20078;-69
2023/05/12 02:01:31;;;;;;;8.43;5.57;;;;;;;;;;5091452;28;20436;-71
2023/05/12 02:03:57;;;;;;;8.43;6.55;;;;;;;;;;5091312;28;20075;-71
2023/05/12 02:06:24;;;;;;;9.23;5.72;;;;;;;;;;5090742;28;20044;-70
2023/05/12 02:08:51;;;;;;;8.40;6.50;;;;;;;;;;5091680;28;20044;-71
2023/05/12 02:11:18;;;;;;;8.23;6.28;;;;;;;;;;5090652;28;20420;-71
2023/05/12 02:13:44;;;;;;;11.27;6.40;;;;;;;;;;5091467;28;20054;-70
2023/05/12 02:16:11;;;;;;;10.88;6.00;;;;;;;;;;5091060;28;20047;-70
2023/05/12 02:18:39;;;;;;;9.05;6.05;;;;;;;;;;5089505;28;20482;-70
2023/05/12 02:21:06;;;;;;;7.88;6.03;;;;;;;;;;5090289;28;20048;-70
2023/05/12 02:23:32;;;;;;;10.13;6.22;;;;;;;;;;5091006;28;20379;-70
2023/05/12 02:25:59;;;;;;;9.07;5.85;;;;;;;;;;5089917;28;20056;-70
2023/05/12 02:28:25;;;;;;;8.02;5.88;;;;;;;;;;5091015;28;20083;-70
2023/05/12 02:30:52;;;;;;;8.88;5.55;;;;;;;;;;5090819;28;20048;-70
2023/05/12 02:33:20;;;;;;;9.02;6.18;;;;;;;;;;5090419;28;20417;-70
2023/05/12 02:35:49;;;;;;;7.82;5.90;;;;;;;;;;5090412;28;20048;-70
2023/05/12 02:38:15;;;;;;;10.40;6.28;;;;;;;;;;5090843;28;20482;-70
2023/05/12 02:40:42;;;;;;;8.30;6.00;;;;;;;;;;5090901;28;20047;-70
2023/05/12 02:43:08;;;;;;;8.65;5.55;;;;;;;;;;5090402;28;20048;-70
2023/05/12 02:45:35;;;;;;;8.93;5.80;;;;;;;;;;5090574;28;20069;-70
2023/05/12 02:48:02;;;;;;;8.95;6.45;;;;;;;;;;5089919;28;20043;-70
2023/05/12 02:50:28;;;;;;;8.32;6.03;;;;;;;;;;5088152;28;20402;-70
2023/05/12 02:52:56;;;;;;;8.88;6.43;;;;;;;;;;5090614;28;20051;-70
2023/05/12 02:55:23;;;;;;;9.32;6.53;;;;;;;;;;5090099;28;20044;-69
2023/05/12 02:57:49;;;;;;;10.20;6.35;;;;;;;;;;5089463;28;20055;-69
2023/05/12 03:00:16;;;;;;;11.70;7.13;;;;;;;;;;5090015;28;20054;-69
2023/05/12 03:02:43;;;;;;;8.55;6.13;;;;;;;;;;5090593;28;20052;-68
2023/05/12 03:05:10;;;;;;;12.40;7.40;;;;;;;;;;5089940;28;20048;-69
2023/05/12 03:07:36;;;;;;;10.43;6.45;;;;;;;;;;5090631;28;20054;-69
2023/05/12 03:10:05;;;;;;;10.80;6.88;;;;;;;;;;5089983;28;20048;-69
2023/05/12 03:12:32;;;;;;;9.40;6.38;;;;;;;;;;5090223;28;20048;-69
2023/05/12 03:14:58;;;;;;;10.13;7.00;;;;;;;;;;5090092;28;20044;-69
2023/05/12 03:17:25;;;;;;;10.18;6.43;;;;;;;;;;5090163;28;20048;-69
2023/05/12 03:19:51;;;;;;;10.43;7.05;;;;;;;;;;5089325;28;20055;-69
2023/05/12 03:22:18;;;;;;;9.70;6.82;;;;;;;;;;5090202;28;20059;-69
2023/05/12 03:24:45;;;;;;;10.10;7.10;;;;;;;;;;5090827;28;20078;-69
2023/05/12 03:27:13;;;;;;;10.30;7.43;;;;;;;;;;5089958;28;20040;-69
2023/05/12 03:29:39;;;;;;;9.70;6.93;;;;;;;;;;5090209;28;20406;-69
2023/05/12 03:32:07;;;;;;;14.38;8.77;;;;;;;;;;5089828;28;20051;-68
2023/05/12 03:34:34;;;;;;;11.35;7.97;;;;;;;;;;5090694;28;20060;-69
2023/05/12 03:37:00;;;;;;;12.10;8.13;;;;;;;;;;5092689;28;20382;-69
2023/05/12 03:39:27;;;;;;;10.80;7.32;;;;;;;;;;5094300;28;20512;-68
2023/05/12 03:41:54;;;;;;;15.45;8.65;;;;;;;;;;5094023;28;20044;-69
2023/05/12 03:44:21;;;;;;;13.48;7.68;;;;;;;;;;5094633;28;20051;-68
2023/05/12 03:46:48;;;;;;;12.18;8.05;;;;;;;;;;5094107;28;20074;-69
2023/05/12 03:49:15;;;;;;;12.32;8.07;;;;;;;;;;5092632;28;20386;-69
2023/05/12 03:51:41;;;;;;;13.23;8.68;;;;;;;;;;5093630;28;20040;-69
2023/05/12 03:54:08;;;;;;;12.65;8.57;;;;;;;;;;5093660;28;20398;-68
2023/05/12 03:56:34;;;;;;;11.30;8.02;;;;;;;;;;5094231;28;20508;-69
2023/05/12 03:59:01;;;;;;;13.30;8.32;;;;;;;;;;5093638;28;20528;-69
2023/05/12 04:01:29;;;;;;;11.27;7.63;;;;;;;;;;5093583;28;20053;-69
2023/05/12 04:03:55;;;;;;;12.60;8.18;;;;;;;;;;5094002;28;20397;-69
2023/05/12 04:06:22;;;;;;;13.68;8.20;;;;;;;;;;5093600;28;20078;-69
2023/05/12 04:08:48;;;;;;;15.48;9.45;;;;;;;;;;5093461;28;20048;-68
2023/05/12 04:11:15;;;;;;;14.98;9.57;;;;;;;;;;5093608;28;20055;-68
2023/05/12 04:13:41;;;;;;;13.48;8.18;;;;;;;;;;5093714;28;20044;-68
2023/05/12 04:16:08;;;;;;;12.82;8.57;;;;;;;;;;5093195;28;20051;-68
2023/05/12 04:18:36;;;;;;;14.00;8.65;;;;;;;;;;5092720;28;20486;-68
2023/05/12 04:21:03;;;;;;;14.18;8.80;;;;;;;;;;5093197;28;20063;-68
2023/05/12 04:23:30;;;;;;;11.30;7.72;;;;;;;;;;5092132;28;20409;-71
2023/05/12 04:25:56;;;;;;;13.20;8.30;;;;;;;;;;5092933;28;20052;-71
2023/05/12 04:28:23;;;;;;;12.88;8.75;;;;;;;;;;5093113;28;20556;-70
2023/05/12 04:30:49;;;;;;;15.95;8.90;;;;;;;;;;5092479;28;20055;-70
2023/05/12 04:33:16;;;;;;;15.57;8.88;;;;;;;;;;5093031;28;20639;-70
2023/05/12 04:35:44;;;;;;;13.55;8.30;;;;;;;;;;5093268;28;20669;-69
2023/05/12 04:38:11;;;;;;;13.68;9.02;;;;;;;;;;5093029;28;20093;-69
2023/05/12 04:40:37;;;;;;;13.95;8.68;;;;;;;;;;5092501;28;20386;-69
2023/05/12 04:43:04;;;;;;;13.85;9.02;;;;;;;;;;5092685;28;20040;-70
2023/05/12 04:45:31;;;;;;;14.00;9.07;;;;;;;;;;5092937;28;20075;-69
2023/05/12 04:47:57;;;;;;;13.88;8.63;;;;;;;;;;5090991;28;20044;-69
2023/05/12 04:50:24;;;;;;;13.55;8.73;;;;;;;;;;5092329;28;20048;-69
2023/05/12 04:52:52;;;;;;;15.43;9.63;;;;;;;;;;5092477;28;20043;-69
2023/05/12 04:55:18;;;;;;;15.10;9.32;;;;;;;;;;5092619;28;20044;-69
2023/05/12 04:57:45;;;;;;;16.90;9.55;;;;;;;;;;5092882;28;20047;-69
2023/05/12 05:00:12;;;;;;;14.25;9.40;;;;;;;;;;5091591;28;20052;-69
2023/05/12 05:02:40;;;;;;;16.45;9.73;;;;;;;;;;5092667;28;20048;-70
2023/05/12 05:05:07;;;;;;;14.13;9.10;;;;;;;;;;5092563;28;20055;-70
2023/05/12 05:07:33;;;;;;;14.43;9.55;;;;;;;;;;5092982;28;20048;-69
2023/05/12 05:10:02;;;;;;;13.45;8.65;;;;;;;;;;5091776;28;20490;-69
2023/05/12 05:12:28;;;;;;;14.45;9.30;;;;;;;;;;5092564;28;20054;-69
2023/05/12 05:14:55;;;;;;;13.63;9.32;;;;;;;;;;5092295;28;20048;-69
2023/05/12 05:17:22;;;;;;;13.73;9.68;;;;;;;;;;5092414;28;20087;-69
2023/05/12 05:19:49;;;;;;;14.25;8.77;;;;;;;;;;5092182;28;20153;-69
2023/05/12 05:22:15;;;;;;;13.02;8.88;;;;;;;;;;5092053;28;20089;-69
2023/05/12 05:24:42;;;;;;;14.13;9.35;;;;;;;;;;5092256;28;20406;-69
2023/05/12 05:27:11;;;;;;;12.65;8.77;;;;;;;;;;5091726;28;20044;-69
2023/05/12 05:29:38;;;;;;;14.75;9.02;;;;;;;;;;5092013;28;20555;-70
2023/05/12 05:32:05;;;;;;;13.40;8.95;;;;;;;;;;5092340;28;20462;-71
2023/05/12 05:34:32;;;;;;;14.15;9.05;;;;;;;;;;5092229;28;20421;-70
2023/05/12 05:36:59;;;;;;;13.63;9.68;;;;;;;;;;5091239;28;20082;-69
2023/05/12 05:39:29;;;;;;;11.18;8.50;;;;;;;;;;5091914;28;20044;-69
2023/05/12 05:41:56;;;;;;;12.60;9.45;;;;;;;;;;5091878;28;20512;-68
2023/05/12 05:44:24;;;;;;;13.38;8.40;;;;;;;;;;5091847;28;20044;-69
2023/05/12 05:46:50;;;;;;;14.63;8.80;;;;;;;;;;5091895;28;20486;-69
2023/05/12 05:49:17;;;;;;;13.27;8.75;;;;;;;;;;5091698;28;20463;-69
2023/05/12 05:51:43;;;;;;;12.23;8.55;;;;;;;;;;5091402;28;20478;-69
2023/05/12 05:54:10;;;;;;;13.63;8.48;;;;;;;;;;5090921;28;20052;-69
2023/05/12 05:56:37;;;;;;;12.25;8.50;;;;;;;;;;5091514;28;20582;-69
2023/05/12 05:59:04;;;;;;;13.23;8.65;;;;;;;;;;5090871;28;20046;-69
2023/05/12 06:01:32;;;;;;;12.82;8.77;;;;;;;;;;5090776;28;20048;-68
2023/05/12 06:03:58;;;;;;;14.95;8.02;;;;;;;;;;5091091;28;20413;-69
2023/05/12 06:06:25;;;;;;;11.95;8.02;;;;;;;;;;5091053;28;20054;-68
2023/05/12 06:08:54;;;;;;;11.55;7.90;;;;;;;;;;5091323;28;20135;-70
2023/05/12 06:11:21;;;;;;;12.90;8.60;;;;;;;;;;5090331;28;20051;-69
2023/05/12 06:13:47;;;;;;;12.68;8.40;;;;;;;;;;5091235;28;20565;-69
2023/05/12 06:16:14;;;;;;;13.30;9.10;;;;;;;;;;5090575;28;20040;-69
2023/05/12 06:18:42;;;;;;;13.13;8.75;;;;;;;;;;5090851;28;20044;-68
2023/05/12 06:21:08;;;;;;;12.13;8.30;;;;;;;;;;5089801;28;20048;-69
2023/05/12 06:23:35;;;;;;;11.48;7.93;;;;;;;;;;5091098;28;20048;-68
2023/05/12 06:26:02;;;;;;;10.57;7.50;;;;;;;;;;5090317;28;20489;-70
2023/05/12 06:28:28;;;;;;;11.52;8.00;;;;;;;;;;5090983;28;20040;-69
2023/05/12 06:30:55;;;;;;;13.20;8.77;;;;;;;;;;5091011;28;20048;-69
2023/05/12 06:33:22;;;;;;;11.88;7.82;;;;;;;;;;5090243;28;20044;-69
2023/05/12 06:35:49;;;;;;;12.23;8.93;;;;;;;;;;5084169;28;20040;-69
2023/05/12 06:38:16;;;;;;;10.30;7.47;;;;;;;;;;5069936;28;20044;-69
2023/05/12 06:40:42;;;;;;;10.82;7.82;;;;;;;;;;5073119;28;20411;-69
2023/05/12 06:43:09;;;;;;;18.05;8.50;;;;;;;;;;5079068;28;20556;-68
2023/05/12 06:45:36;;;;;;;11.30;8.02;;;;;;;;;;5073948;28;20079;-69
2023/05/12 06:48:04;;;;;;;10.82;7.47;;;;;;;;;;5080696;28;20044;-69
2023/05/12 06:50:31;;;;;;;10.73;7.55;;;;;;;;;;5073485;28;20082;-69
2023/05/12 06:52:59;;;;;;;9.65;7.72;;;;;;;;;;5075571;28;20422;-69
2023/05/12 06:55:26;;;;;;;12.85;8.52;;;;;;;;;;5074078;28;20044;-69
2023/05/12 06:57:54;;;;;;;12.88;8.70;;;;;;;;;;5086664;28;20582;-69
2023/05/12 07:00:22;;;;;;;12.43;8.32;;;;;;;;;;5089360;28;20136;-69
2023/05/12 07:02:48;;;;;;;11.10;8.10;;;;;;;;;;5090319;28;20540;-69
2023/05/12 07:05:15;;;;;;;12.27;8.48;;;;;;;;;;5089845;28;20469;-69
2023/05/12 07:07:41;;;;;;;10.15;7.75;;;;;;;;;;5090260;28;20509;-69
2023/05/12 07:10:10;;;;;;;12.93;8.43;;;;;;;;;;5080855;28;20465;-69
2023/05/12 07:12:37;;;;;;;12.60;8.95;;;;;;;;;;5080394;28;20044;-69
2023/05/12 07:15:04;;;;;;;12.00;8.70;;;;;;;;;;5089282;28;20052;-69
2023/05/12 07:17:31;;;;;;;9.65;7.20;;;;;;;;;;5089407;28;20134;-70
2023/05/12 07:19:57;;;;;;;9.95;7.47;;;;;;;;;;5086544;28;20052;-69
2023/05/12 07:22:24;;;;;;;10.20;7.53;;;;;;;;;;5088363;28;20131;-69
2023/05/12 07:24:51;;;;;;;10.18;7.28;;;;;;;;;;5074888;28;20072;-69
2023/05/12 07:27:18;;;;;;;11.77;8.30;;;;;;;;;;5085635;28;20054;-69
2023/05/12 07:29:45;;;;;;;11.57;8.13;;;;;;;;;;5081355;28;20037;-69
2023/05/12 07:32:12;;;;;;;10.35;8.32;;;;;;;;;;5086075;28;20677;-69
2023/05/12 07:34:39;;;;;;;11.65;8.18;;;;;;;;;;5081368;28;20040;-71
2023/05/12 07:37:05;;;;;;;9.50;7.63;;;;;;;;;;5088744;28;20478;-70
2023/05/12 07:39:32;;;;;;;10.25;8.18;;;;;;;;;;5086693;28;20048;-71
2023/05/12 07:41:59;;;;;;;12.70;8.55;;;;;;;;;;5081039;28;20044;-70
2023/05/12 07:44:27;;;;;;;11.93;9.10;;;;;;;;;;5081166;28;20087;-70
2023/05/12 07:46:54;;;;;;;11.10;8.32;;;;;;;;;;5089018;28;20048;-70
2023/05/12 07:49:22;;;;;;;12.02;8.50;;;;;;;;;;5090007;28;20482;-70
2023/05/12 07:51:48;;;;;;;13.38;9.32;;;;;;;;;;5071068;28;20416;-71
2023/05/12 07:54:15;;;;;;;12.23;9.13;;;;;;;;;;5079915;28;20055;-70
2023/05/12 07:56:41;;;;;;;12.90;9.20;;;;;;;;;;5080187;28;20500;-70
2023/05/12 07:59:08;;;;;;;13.30;9.00;;;;;;;;;;5079840;28;20036;-70
2023/05/12 08:01:36;;;;;;;12.65;9.50;;;;;;;;;;5080158;28;20134;-70
2023/05/12 08:04:02;;;;;;;14.35;9.52;;;;;;;;;;5086498;28;20040;-70
2023/05/12 08:06:29;;;;;;;13.90;8.98;;;;;;;;;;5078857;28;20044;-70
2023/05/12 08:08:57;;;;;;;13.63;9.05;;;;;;;;;;5078307;28;20051;-70
2023/05/12 08:11:23;;;;;;;12.00;8.85;;;;;;;;;;5071887;28;20506;-70
2023/05/12 08:13:50;;;;;;;13.23;9.18;;;;;;;;;;5089758;28;20044;-70
2023/05/12 08:16:16;;;;;;;11.77;8.98;;;;;;;;;;5088997;28;20048;-70
2023/05/12 08:18:44;;;;;;;11.68;8.50;;;;;;;;;;5083205;28;20051;-70
2023/05/12 08:21:11;;;;;;;11.35;8.40;;;;;;;;;;5077966;28;20056;-70
2023/05/12 08:23:38;;;;;;;11.25;8.65;;;;;;;;;;5084652;28;20113;-70
2023/05/12 08:26:04;;;;;;;10.80;8.18;;;;;;;;;;5079438;28;20052;-70
2023/05/12 08:28:31;;;;;;;12.98;8.50;;;;;;;;;;5092520;28;20048;-70
2023/05/12 08:30:58;;;;;;;9.38;7.82;;;;;;;;;;5085512;28;20347;-70
2023/05/12 08:33:24;;;;;;;10.07;7.75;;;;;;;;;;5091103;28;20040;-70
2023/05/12 08:35:52;;;;;;;10.23;7.55;;;;;;;;;;5092923;28;20413;-70
2023/05/12 08:38:19;;;;;;;8.60;7.10;;;;;;;;;;5092570;28;20050;-69
2023/05/12 08:40:53;;;;;;;10.52;7.82;;;;;;;;;;5090690;28;20044;-69
2023/05/12 08:43:24;;;;;;;11.95;8.27;;;;;;;;;;5092441;28;20054;-69
2023/05/12 08:45:51;;;;;;;10.68;7.60;;;;;;;;;;5076772;28;20505;-69
2023/05/12 08:48:19;;;;;;;10.50;7.38;;;;;;;;;;5091140;28;20434;-69
2023/05/12 08:50:49;;;;;;;11.15;6.88;;;;;;;;;;5091265;28;20129;-69
2023/05/12 08:53:18;;;;;;;8.82;7.03;;;;;;;;;;5084670;28;20036;-69
2023/05/12 08:55:47;;;;;;;7.53;6.30;;;;;;;;;;5084683;28;20044;-69
2023/05/12 08:58:15;;;;;;;9.90;6.75;;;;;;;;;;5082354;28;20486;-69
2023/05/12 09:00:41;;;;;;;8.68;6.78;;;;;;;;;;5092406;28;20040;-69
2023/05/12 09:03:08;;;;;;;7.40;5.78;;;;;;;;;;5086314;28;20086;-69
2023/05/12 09:05:36;;;;;;;6.53;5.47;;;;;;;;;;5086110;28;20044;-69
2023/05/12 09:08:03;;;;;;;5.95;4.45;;;;;;;;;;5086562;28;20044;-69
2023/05/12 09:10:31;;;;;;;6.32;4.50;;;;;;;;;;5078145;28;20044;-70
2023/05/12 09:13:03;;;;;;;6.35;4.25;;;;;;;;;;5078113;28;20048;-70
2023/05/12 09:15:33;;;;;;;;;;;;;;;;;;5090120;28;20044;-70
2023/05/12 09:18:00;;;;;;;4.88;3.65;;;;;;;;;;5091208;28;20392;-70
2023/05/12 09:20:27;;;;;;;4.45;3.67;;;;;;;;;;5083984;28;20068;-70
2023/05/12 09:22:55;;;;;;;3.72;3.30;;;;;;;;;;5077211;28;20049;-70
2023/05/12 09:25:22;;;;;;;3.80;3.42;;;;;;;;;;5086362;28;20048;-70
2023/05/12 09:27:55;;;;;;;3.58;3.28;;;;;;;;;;5091768;28;20069;-70
2023/05/12 09:30:30;;;;;;;4.10;3.45;;;;;;;;;;5089188;28;20056;-71
2023/05/12 09:33:05;;;;;;;5.28;4.13;;;;;;;;;;5084409;28;20432;-69
2023/05/12 09:35:32;;;;;;;4.80;4.20;;;;;;;;;;5090972;28;20040;-69
2023/05/12 09:38:06;;;;;;;5.25;4.55;;;;;;;;;;5078919;28;20505;-69
2023/05/12 09:40:32;;;;;;;5.28;4.50;;;;;;;;;;5086775;28;20093;-69
2023/05/12 09:43:00;;;;;;;5.28;4.15;;;;;;;;;;5091368;28;20044;-69
2023/05/12 09:45:27;;;;;;;4.75;4.25;;;;;;;;;;5090291;28;20053;-70
2023/05/12 09:47:54;;;;;;;5.50;4.10;;;;;;;;;;5092115;28;20446;-70
2023/05/12 09:50:21;;;;;;;3.90;3.30;;;;;;;;;;5090652;28;20136;-70
2023/05/12 09:52:50;;;;;;;3.88;3.47;;;;;;;;;;5090089;28;20052;-70
2023/05/12 09:55:16;;;;;;;2.97;2.70;;;;;;;;;;5091370;28;20056;-70
2023/05/12 09:57:44;;;;;;;2.13;1.92;;;;;;;;;;5091487;28;20503;-70
2023/05/12 10:00:16;;;;;;;1.80;1.70;;;;;;;;;;5091516;28;20048;-70
2023/05/12 10:02:43;;;;;;;1.67;1.52;;;;;;;;;;5091185;28;20059;-70
2023/05/12 10:05:15;;;;;;;1.27;1.17;;;;;;;;;;5091379;28;20130;-70
2023/05/12 10:07:43;;;;;;;1.48;1.20;;;;;;;;;;5089310;28;20395;-69
2023/05/12 10:10:14;;;;;;;1.70;1.38;;;;;;;;;;5091346;28;20039;-69
2023/05/12 10:12:41;;;;;;;1.27;1.00;;;;;;;;;;5090862;28;20474;-69
2023/05/12 10:15:10;;;;;;;1.27;1.17;;;;;;;;;;5091312;28;20067;-69
2023/05/12 10:17:40;;;;;;;1.30;1.20;;;;;;;;;;5090874;28;20493;-69
2023/05/12 10:20:09;;;;;;;1.60;1.05;;;;;;;;;;5090956;28;20164;-70
2023/05/12 10:22:38;;;;;;;2.22;1.02;;;;;;;;;;5090927;28;20390;-69
2023/05/12 10:25:06;;;;;;;1.45;1.10;;;;;;;;;;5090578;28;20047;-69
2023/05/12 10:27:33;;;;;;;1.73;1.30;;;;;;;;;;5090949;28;20048;-69
2023/05/12 10:30:00;;;;;;;1.52;1.20;;;;;;;;;;5090337;28;20044;-69
2023/05/12 10:32:27;;;;;;;2.83;1.30;;;;;;;;;;5090766;28;20040;-69
2023/05/12 10:34:57;;;;;;;1.65;1.30;;;;;;;;;;5089886;28;20044;-70
2023/05/12 10:37:24;;;;;;;1.00;0.90;;;;;;;;;;5088825;28;20387;-70
2023/05/12 10:39:52;;;;;;;2.67;1.25;;;;;;;;;;5090080;28;20514;-69
2023/05/12 10:42:24;;;;;;;3.40;1.27;;;;;;;;;;5090602;28;20052;-70
2023/05/12 10:44:51;;;;;;;1.38;1.27;;;;;;;;;;5090558;28;20502;-69
2023/05/12 10:47:18;;;;;;;1.30;1.20;;;;;;;;;;5089729;28;20077;-70
2023/05/12 10:49:45;;;;;;;1.48;1.30;;;;;;;;;;5090310;28;20052;-69
2023/05/12 10:52:19;;;;;;;2.45;1.30;;;;;;;;;;5090434;28;20048;-69
2023/05/12 10:54:47;;;;;;;1.85;1.30;;;;;;;;;;5090740;28;20044;-70
2023/05/12 10:57:15;;;;;;;1.50;1.40;;;;;;;;;;5090161;28;20044;-70
2023/05/12 10:59:48;;;;;;;1.63;1.40;;;;;;;;;;5090709;28;20056;-69
2023/05/12 11:02:16;;;;;;;2.10;1.70;;;;;;;;;;5089848;28;20048;-69
2023/05/12 11:04:47;;;;;;;3.08;2.65;;;;;;;;;;5089287;28;20433;-69
2023/05/12 11:07:21;;;;;;;2.08;1.88;;;;;;;;;;5089611;28;20052;-69
2023/05/12 11:09:48;;;;;;;1.98;1.80;;;;;;;;;;5090038;28;20048;-69
2023/05/12 11:12:15;;;;;;;2.20;1.98;;;;;;;;;;5089885;28;20059;-69
2023/05/12 11:14:44;;;;;;;2.25;2.03;;;;;;;;;;5090081;28;20052;-69
2023/05/12 11:17:10;;;;;;;3.20;2.35;;;;;;;;;;5090042;28;20129;-69
2023/05/12 11:19:38;;;;;;;2.22;2.03;;;;;;;;;;5089912;28;20048;-70
2023/05/12 11:22:06;;;;;;;2.80;2.15;;;;;;;;;;5090308;28;20048;-69
2023/05/12 11:24:34;;;;;;;2.70;2.22;;;;;;;;;;5089842;28;20044;-69
2023/05/12 11:27:01;;;;;;;2.53;1.98;;;;;;;;;;5090329;28;20044;-69
2023/05/12 11:29:27;;;;;;;2.58;2.30;;;;;;;;;;5089871;28;20412;-69
2023/05/12 11:31:54;;;;;;;2.45;1.88;;;;;;;;;;5090605;28;20426;-69
2023/05/12 11:34:22;;;;;;;3.42;1.70;;;;;;;;;;5089886;28;20048;-70
2023/05/12 11:36:50;;;;;;;1.92;1.80;;;;;;;;;;5090341;28;20509;-70
2023/05/12 11:39:17;;;;;;;3.75;1.80;;;;;;;;;;5089884;28;20054;-70
2023/05/12 11:41:45;;;;;;;1.80;1.52;;;;;;;;;;5089663;28;20077;-70
2023/05/12 11:44:19;;;;;;;2.53;1.67;;;;;;;;;;5090288;28;20052;-70
2023/05/12 11:46:56;;;;;;;1.70;1.60;;;;;;;;;;5090168;28;20438;-70
2023/05/12 11:49:23;;;;;;;3.00;2.20;;;;;;;;;;5090333;28;20524;-70
2023/05/12 11:51:52;;;;;;;1.92;1.83;;;;;;;;;;5089451;28;20044;-70
2023/05/12 11:54:19;;;;;;;1.90;1.80;;;;;;;;;;5089857;28;20052;-70
2023/05/12 11:56:51;;;;;;;1.65;1.55;;;;;;;;;;5090421;28;20051;-70
2023/05/12 11:59:28;;;;;;;1.85;1.70;;;;;;;;;;5093895;28;20048;-70
2023/05/12 12:01:55;;;;;;;3.13;1.60;;;;;;;;;;5093606;28;20091;-70
2023/05/12 12:04:32;;;;;;;1.45;1.35;;;;;;;;;;5093970;28;20051;-70
2023/05/12 12:06:58;;;;;;;1.90;1.70;;;;;;;;;;5093985;28;20093;-70
2023/05/12 12:09:31;;;;;;;1.80;1.70;;;;;;;;;;5093917;28;20048;-70
2023/05/12 12:11:58;;;;;;;;;;;;;;;;;;5094036;28;20040;-68
2023/05/12 12:14:25;;;;;;;1.90;1.70;;;;;;;;;;5093630;28;19932;-68
2023/05/12 12:16:52;;;;;;;2.13;1.75;;;;;;;;;;5093713;28;20331;-70
2023/05/12 12:19:18;;;;;;;2.42;1.90;;;;;;;;;;5093502;28;20048;-69
2023/05/12 12:21:45;;;;;;;3.50;2.00;;;;;;;;;;5093015;28;20501;-69
2023/05/12 12:24:11;;;;;;;1.92;1.83;;;;;;;;;;5093519;28;20045;-69
2023/05/12 12:26:38;;;;;;;1.67;1.58;;;;;;;;;;5093167;28;20044;-69
2023/05/12 12:29:06;;;;;;;1.95;1.75;;;;;;;;;;5093418;28;20106;-69
2023/05/12 12:31:35;;;;;;;2.88;2.17;;;;;;;;;;5092897;28;20048;-70
2023/05/12 12:34:02;;;;;;;2.97;1.77;;;;;;;;;;5093153;28;20047;-70
2023/05/12 12:36:29;;;;;;;3.60;2.10;;;;;;;;;;5093716;28;20052;-70
2023/05/12 12:38:55;;;;;;;2.63;1.63;;;;;;;;;;5092958;28;20047;-70
2023/05/12 12:41:22;;;;;;;1.85;1.52;;;;;;;;;;5092855;28;20040;-70
2023/05/12 12:43:49;;;;;;;3.55;2.17;;;;;;;;;;5093060;28;20474;-69
2023/05/12 12:46:17;;;;;;;2.83;1.70;;;;;;;;;;5092610;28;20109;-70
2023/05/12 12:48:43;;;;;;;3.45;2.05;;;;;;;;;;5092829;28;20052;-70
2023/05/12 12:51:10;;;;;;;4.90;2.47;;;;;;;;;;5092823;28;20052;-69
2023/05/12 12:53:37;;;;;;;2.83;2.10;;;;;;;;;;5092673;28;20044;-69
2023/05/12 12:56:04;;;;;;;2.50;2.30;;;;;;;;;;5092872;28;20254;-69
2023/05/12 12:58:31;;;;;;;2.55;2.35;;;;;;;;;;5092328;28;20433;-70
2023/05/12 13:00:58;;;;;;;2.63;2.42;;;;;;;;;;5092369;28;20589;-69
2023/05/12 13:03:25;;;;;;;3.25;2.55;;;;;;;;;;5092230;28;20044;-70
2023/05/12 13:05:52;;;;;;;2.55;2.20;;;;;;;;;;5092866;28;20040;-70
2023/05/12 13:08:19;;;;;;;3.47;2.20;;;;;;;;;;5092145;28;20121;-70
2023/05/12 13:10:46;;;;;;;3.10;2.30;;;;;;;;;;5091983;28;20093;-70
2023/05/12 13:13:13;;;;;;;2.55;2.35;;;;;;;;;;5092807;28;20401;-70
2023/05/12 13:15:40;;;;;;;2.85;2.40;;;;;;;;;;5091918;28;20059;-69
2023/05/12 13:18:07;;;;;;;2.72;2.40;;;;;;;;;;5092368;28;20048;-69
2023/05/12 13:20:35;;;;;;;2.15;1.95;;;;;;;;;;5091745;28;20078;-69
2023/05/12 13:23:02;;;;;;;2.28;2.08;;;;;;;;;;5092353;28;20451;-70
2023/05/12 13:25:28;;;;;;;3.38;2.25;;;;;;;;;;5091710;28;20070;-69
2023/05/12 13:27:55;;;;;;;2.92;2.13;;;;;;;;;;5092041;28;20047;-70
2023/05/12 13:30:23;;;;;;;3.22;2.30;;;;;;;;;;5091351;28;20059;-70
2023/05/12 13:32:50;;;;;;;5.25;2.67;;;;;;;;;;5092304;28;20044;-69
2023/05/12 13:35:16;;;;;;;3.35;2.65;;;;;;;;;;5091667;28;20052;-70
2023/05/12 13:37:44;;;;;;;2.83;2.30;;;;;;;;;;5092019;28;20505;-69
2023/05/12 13:40:12;;;;;;;3.53;2.50;;;;;;;;;;5091320;28;20040;-69
2023/05/12 13:42:38;;;;;;;6.15;2.75;;;;;;;;;;5091596;28;20062;-70
2023/05/12 13:45:07;;;;;;;4.40;2.78;;;;;;;;;;5092109;28;20051;-69
2023/05/12 13:47:34;;;;;;;5.72;3.03;;;;;;;;;;5091364;28;20426;-70
2023/05/12 13:50:01;;;;;;;3.15;2.85;;;;;;;;;;5092132;28;20055;-69
2023/05/12 13:52:27;;;;;;;3.95;3.05;;;;;;;;;;5091613;28;20478;-69
2023/05/12 13:54:55;;;;;;;3.45;2.80;;;;;;;;;;5092076;28;20085;-69
2023/05/12 13:57:22;;;;;;;4.25;3.20;;;;;;;;;;5091223;28;20044;-69
2023/05/12 13:59:49;;;;;;;3.13;2.78;;;;;;;;;;5091606;28;20447;-69
2023/05/12 14:02:15;;;;;;;2.88;2.58;;;;;;;;;;5091727;28;20085;-68
2023/05/12 14:04:42;;;;;;;3.55;2.83;;;;;;;;;;5092043;28;20052;-69
2023/05/12 14:07:08;;;;;;;3.63;2.95;;;;;;;;;;5091433;28;20048;-69
2023/05/12 14:09:35;;;;;;;3.63;3.33;;;;;;;;;;5091599;28;20052;-69
2023/05/12 14:12:03;;;;;;;5.22;3.72;;;;;;;;;;5091277;28;20306;-69
2023/05/12 14:14:30;;;;;;;4.18;3.55;;;;;;;;;;5091383;28;20381;-69
2023/05/12 14:16:56;;;;;;;4.82;3.15;;;;;;;;;;5091080;28;20052;-68
2023/05/12 14:19:23;;;;;;;5.90;3.00;;;;;;;;;;5091870;28;20048;-69
2023/05/12 14:21:49;;;;;;;4.40;3.53;;;;;;;;;;5090590;28;20047;-69
2023/05/12 14:24:16;;;;;;;3.47;3.08;;;;;;;;;;5091117;28;20075;-69
2023/05/12 14:26:43;;;;;;;3.60;3.22;;;;;;;;;;5091268;28;20454;-69
2023/05/12 14:29:11;;;;;;;3.42;3.08;;;;;;;;;;5090674;28;20048;-69
2023/05/12 14:31:37;;;;;;;4.82;2.88;;;;;;;;;;5091113;28;20055;-69
2023/05/12 14:34:04;;;;;;;4.82;2.78;;;;;;;;;;5090948;28;20044;-69
2023/05/12 14:36:30;;;;;;;4.00;2.97;;;;;;;;;;5090979;28;20075;-69
2023/05/12 14:38:57;;;;;;;3.03;2.50;;;;;;;;;;5090585;28;20040;-69